Time;durP1;ratioP1;P1;durP2;ratioP2;P2;SDS_P1;SDS_P2;PMS_P1;PMS_P2;Temp;Humidity;BMP_temperature;BMP_pressure;BME280_temperature;BME280_humidity;BME280_pressure;Samples;Min_cycle;Max_cycle;Signal;HPM_P1;HPM_P2
2024/02/10 00:01:07;;;;;;;7.20;5.50;;;;;;;8.91;82.36;94648.32;108891;1272;22535;-73
2024/02/10 00:03:49;;;;;;;9.20;6.30;;;;;;;8.87;82.48;94646.02;108852;1266;24717;-73
2024/02/10 00:06:22;;;;;;;9.90;6.00;;;;;;;8.83;82.63;94646.18;108916;1272;24276;-73
2024/02/10 00:08:54;;;;;;;9.10;5.50;;;;;;;8.82;82.80;94655.89;108918;1272;24421;-73
2024/02/10 00:11:25;;;;;;;9.60;6.10;;;;;;;8.79;82.89;94657.11;108906;1271;22521;-73
2024/02/10 00:13:56;;;;;;;9.00;5.60;;;;;;;8.75;83.24;94664.86;108868;1269;22547;-73
2024/02/10 00:16:28;;;;;;;8.00;4.80;;;;;;;8.71;83.25;94664.52;108944;1266;22555;-73
2024/02/10 00:19:08;;;;;;;8.50;5.10;;;;;;;8.67;83.63;94667.07;108884;1272;22528;-73
2024/02/10 00:21:39;;;;;;;8.20;5.30;;;;;;;8.62;83.91;94668.11;108884;1266;24789;-72
2024/02/10 00:24:11;;;;;;;11.50;6.50;;;;;;;8.57;84.24;94669.53;108936;1272;27559;-73
2024/02/10 00:26:45;;;;;;;8.80;5.30;;;;;;;8.50;84.42;94667.41;108950;1272;24195;-73
2024/02/10 00:29:18;;;;;;;9.90;5.50;;;;;;;8.41;84.74;94670.20;108961;1272;22534;-73
2024/02/10 00:31:49;;;;;;;9.60;4.90;;;;;;;8.35;85.05;94671.29;108950;1272;22568;-74
2024/02/10 00:34:25;;;;;;;8.10;5.20;;;;;;;8.29;85.48;94673.17;108924;1272;25252;-73
2024/02/10 00:36:56;;;;;;;11.00;5.30;;;;;;;8.21;85.87;94671.56;108944;1264;22563;-73
2024/02/10 00:39:27;;;;;;;9.10;5.80;;;;;;;8.18;86.41;94673.78;108908;1265;22521;-73
2024/02/10 00:41:59;;;;;;;7.90;5.10;;;;;;;8.17;86.81;94671.70;108908;1272;25319;-73
2024/02/10 00:44:34;;;;;;;8.50;5.60;;;;;;;8.14;86.97;94678.23;108925;1269;22527;-73
2024/02/10 00:47:12;;;;;;;8.40;5.00;;;;;;;8.12;87.27;94676.95;108941;1272;22528;-73
2024/02/10 00:49:44;;;;;;;8.00;4.80;;;;;;;8.11;87.90;94677.73;108889;1272;26681;-73
2024/02/10 00:52:17;;;;;;;8.80;5.70;;;;;;;8.10;88.33;94679.83;108883;1264;23266;-73
2024/02/10 00:54:48;;;;;;;7.00;5.00;;;;;;;8.11;88.74;94683.39;108961;1272;22925;-73
2024/02/10 00:57:19;;;;;;;9.60;5.00;;;;;;;8.10;88.81;94678.23;108942;1272;25217;-73
2024/02/10 00:59:50;;;;;;;11.50;5.90;;;;;;;8.07;89.00;94678.80;108797;1271;24196;-73
2024/02/10 01:02:21;;;;;;;9.20;6.10;;;;;;;8.05;89.46;94676.35;108782;1266;22547;-73
2024/02/10 01:04:54;;;;;;;9.00;4.80;;;;;;;8.06;90.16;94672.55;108843;1269;22766;-73
2024/02/10 01:07:26;;;;;;;8.40;4.60;;;;;;;8.08;90.44;94669.98;108801;1266;22581;-73
2024/02/10 01:09:57;;;;;;;7.50;3.90;;;;;;;8.07;90.50;94662.48;108852;1269;22534;-73
2024/02/10 01:12:29;;;;;;;5.90;3.40;;;;;;;8.11;90.93;94660.70;108700;1263;24261;-73
2024/02/10 01:15:00;;;;;;;6.20;3.60;;;;;;;8.18;91.70;94657.73;108793;1272;22525;-73
2024/02/10 01:17:32;;;;;;;7.20;5.00;;;;;;;8.18;91.91;94654.47;108762;1266;22521;-73
2024/02/10 01:20:04;;;;;;;6.40;3.30;;;;;;;8.17;91.72;94651.20;108751;1272;22667;-73
2024/02/10 01:22:37;;;;;;;7.40;3.90;;;;;;;8.15;92.05;94650.84;108730;1263;22597;-73
2024/02/10 01:25:09;;;;;;;6.60;4.20;;;;;;;8.18;92.46;94647.22;108774;1271;22587;-73
2024/02/10 01:27:44;;;;;;;6.00;3.30;;;;;;;8.23;92.55;94644.27;108773;1272;25397;-73
2024/02/10 01:30:17;;;;;;;7.40;4.50;;;;;;;8.23;92.35;94640.58;108784;1266;22537;-74
2024/02/10 01:32:48;;;;;;;7.10;4.00;;;;;;;8.20;92.21;94640.45;108750;1269;22566;-73
2024/02/10 01:35:19;;;;;;;8.30;4.40;;;;;;;8.16;92.11;94640.26;108792;1259;22534;-73
2024/02/10 01:37:50;;;;;;;8.70;4.70;;;;;;;8.16;92.15;94635.56;108877;1272;22524;-72
2024/02/10 01:40:21;;;;;;;6.60;4.80;;;;;;;8.13;92.16;94636.38;108796;1266;22536;-73
2024/02/10 01:42:53;;;;;;;7.20;4.30;;;;;;;8.10;92.11;94632.47;108733;1270;23493;-73
2024/02/10 01:45:24;;;;;;;8.90;4.80;;;;;;;8.07;92.14;94632.63;108785;1266;22556;-72
2024/02/10 01:48:05;;;;;;;7.50;4.80;;;;;;;8.03;92.17;94633.75;108709;1266;22526;-74
2024/02/10 01:50:36;;;;;;;7.20;4.70;;;;;;;8.01;92.40;94632.00;108730;1266;22547;-73
2024/02/10 01:53:07;;;;;;;8.30;5.00;;;;;;;8.00;92.41;94630.98;108798;1266;22553;-73
2024/02/10 01:55:42;;;;;;;6.50;4.70;;;;;;;8.00;92.51;94630.38;108808;1272;22525;-73
2024/02/10 01:58:17;;;;;;;6.00;4.00;;;;;;;8.02;92.61;94628.75;108870;1272;24305;-73
2024/02/10 02:00:48;;;;;;;6.80;3.90;;;;;;;8.01;92.58;94627.45;108761;1272;22544;-73
2024/02/10 02:03:19;;;;;;;6.70;4.30;;;;;;;8.02;92.70;94626.76;108662;1272;41789;-73
2024/02/10 02:05:50;;;;;;;6.60;4.00;;;;;;;8.02;92.76;94624.73;108820;1268;22531;-73
2024/02/10 02:08:21;;;;;;;8.90;4.50;;;;;;;8.03;92.76;94625.67;108780;1263;25139;-73
2024/02/10 02:10:53;;;;;;;6.00;3.90;;;;;;;8.02;92.83;94623.20;108788;1266;22532;-73
2024/02/10 02:13:24;;;;;;;7.20;4.40;;;;;;;8.03;92.89;94624.63;108763;1263;22528;-73
2024/02/10 02:15:57;;;;;;;8.60;4.30;;;;;;;8.02;92.80;94625.90;108738;1271;22606;-72
2024/02/10 02:18:28;;;;;;;6.10;4.10;;;;;;;8.03;93.05;94626.68;108703;1272;25416;-74
2024/02/10 02:21:00;;;;;;;7.60;4.80;;;;;;;8.01;92.87;94625.23;108702;1268;25373;-73
2024/02/10 02:23:32;;;;;;;7.80;4.00;;;;;;;8.00;92.90;94619.83;108729;1272;22530;-73
2024/02/10 02:26:03;;;;;;;7.10;4.00;;;;;;;7.94;92.80;94624.61;108730;1272;22540;-73
2024/02/10 02:28:37;;;;;;;7.30;3.70;;;;;;;7.89;92.97;94622.13;108752;1267;22561;-73
2024/02/10 02:31:08;;;;;;;6.40;2.90;;;;;;;7.88;93.29;94623.05;108861;1272;24270;-72
2024/02/10 02:33:40;;;;;;;4.00;2.70;;;;;;;7.84;93.28;94618.20;108815;1266;25344;-73
2024/02/10 02:36:11;;;;;;;3.60;2.70;;;;;;;7.75;93.30;94621.34;108726;1264;22560;-72
2024/02/10 02:38:43;;;;;;;4.90;2.50;;;;;;;7.68;93.38;94616.29;108742;1269;22559;-72
2024/02/10 02:41:15;;;;;;;3.70;2.40;;;;;;;7.65;93.77;94612.76;108995;1272;22560;-72
2024/02/10 02:43:46;;;;;;;4.40;2.90;;;;;;;7.65;94.03;94616.85;108647;1272;22593;-72
2024/02/10 02:46:18;;;;;;;4.90;3.00;;;;;;;7.67;94.36;94613.69;108680;1270;22517;-72
2024/02/10 02:48:50;;;;;;;5.80;3.80;;;;;;;7.69;94.36;94617.16;108800;1272;24185;-72
2024/02/10 02:51:21;;;;;;;6.00;4.40;;;;;;;7.62;94.35;94616.08;108711;1272;25418;-73
2024/02/10 02:53:52;;;;;;;9.30;4.80;;;;;;;7.60;94.65;94613.64;108743;1265;22543;-72
2024/02/10 02:56:25;;;;;;;6.20;3.70;;;;;;;7.60;94.97;94611.73;108768;1272;22582;-72
2024/02/10 02:58:56;;;;;;;4.70;2.80;;;;;;;7.61;95.17;94614.19;108726;1272;22640;-72
2024/02/10 03:01:30;;;;;;;3.90;2.20;;;;;;;7.62;95.16;94618.05;108754;1272;23324;-72
2024/02/10 03:04:01;;;;;;;3.70;2.60;;;;;;;7.63;95.33;94616.73;108740;1272;22547;-72
2024/02/10 03:06:33;;;;;;;4.10;3.10;;;;;;;7.64;95.41;94612.20;108801;1272;22521;-73
2024/02/10 03:09:08;;;;;;;4.90;3.10;;;;;;;7.65;95.60;94613.20;108799;1267;22539;-72
2024/02/10 03:11:40;;;;;;;6.30;3.10;;;;;;;7.68;95.86;94617.62;108930;1267;26581;-71
2024/02/10 03:14:11;;;;;;;6.20;3.30;;;;;;;7.69;95.89;94615.73;108907;1263;22535;-72
2024/02/10 03:16:44;;;;;;;6.40;3.50;;;;;;;7.64;95.52;94614.38;108958;1272;22532;-72
2024/02/10 03:19:15;;;;;;;4.90;3.40;;;;;;;7.60;95.71;94613.95;108900;1272;22636;-72
2024/02/10 03:21:46;;;;;;;6.20;3.60;;;;;;;7.61;95.69;94616.94;108879;1272;22533;-72
2024/02/10 03:24:17;;;;;;;5.70;3.80;;;;;;;7.52;95.67;94613.39;108914;1266;24229;-72
2024/02/10 03:26:50;;;;;;;5.30;3.80;;;;;;;7.49;96.01;94614.89;108851;1272;22549;-72
2024/02/10 03:29:22;;;;;;;6.80;4.10;;;;;;;7.49;96.22;94608.48;108883;1266;22527;-72
2024/02/10 03:31:53;;;;;;;7.40;4.10;;;;;;;7.41;95.81;94616.70;108878;1266;27643;-73
2024/02/10 03:34:24;;;;;;;5.00;4.10;;;;;;;7.26;95.62;94613.27;108873;1272;22527;-72
2024/02/10 03:36:55;;;;;;;5.70;4.20;;;;;;;7.13;95.81;94615.02;108903;1269;22524;-72
2024/02/10 03:39:25;;;;;;;7.00;4.30;;;;;;;7.04;95.85;94614.38;108808;1272;24205;-72
2024/02/10 03:41:57;;;;;;;6.10;4.40;;;;;;;6.98;96.41;94612.42;108804;1272;22621;-72
2024/02/10 03:44:27;;;;;;;7.40;4.50;;;;;;;6.97;96.85;94613.89;108820;1272;22524;-72
2024/02/10 03:47:00;;;;;;;7.40;4.20;;;;;;;6.98;97.11;94611.90;108815;1271;22543;-73
2024/02/10 03:49:33;;;;;;;5.70;4.10;;;;;;;7.01;97.21;94612.50;108884;1268;22533;-72
2024/02/10 03:52:08;;;;;;;6.70;4.40;;;;;;;7.01;97.25;94614.52;108797;1270;22527;-72
2024/02/10 03:54:39;;;;;;;4.20;3.30;;;;;;;6.99;97.50;94617.52;108821;1272;22527;-72
2024/02/10 03:57:10;;;;;;;4.40;2.80;;;;;;;6.98;97.66;94618.08;108838;1271;25390;-73
2024/02/10 03:59:41;;;;;;;13.50;7.90;;;;;;;7.01;98.07;94620.05;108779;1272;22539;-72
2024/02/10 04:02:12;;;;;;;32.60;16.30;;;;;;;7.00;98.03;94614.77;108802;1272;22523;-72
2024/02/10 04:04:43;;;;;;;31.50;16.30;;;;;;;7.00;98.30;94612.95;108648;1274;22524;-73
2024/02/10 04:07:15;;;;;;;16.30;9.20;;;;;;;7.00;98.40;94616.65;108677;1273;22528;-72
2024/02/10 04:09:47;;;;;;;10.50;6.20;;;;;;;6.97;98.36;94617.41;108653;1273;22559;-73
2024/02/10 04:12:18;;;;;;;14.50;7.70;;;;;;;6.99;98.72;94615.10;108704;1266;22530;-72
2024/02/10 04:14:49;;;;;;;14.70;8.30;;;;;;;7.01;98.76;94619.79;108697;1266;22533;-73
2024/02/10 04:17:23;;;;;;;15.50;8.40;;;;;;;7.02;98.83;94620.22;108657;1267;22526;-72
2024/02/10 04:19:56;;;;;;;8.60;4.60;;;;;;;7.04;99.08;94613.50;108681;1273;22535;-72
2024/02/10 04:22:28;;;;;;;6.40;3.70;;;;;;;7.08;99.33;94608.92;108720;1267;22512;-72
2024/02/10 04:25:00;;;;;;;6.10;3.20;;;;;;;7.12;99.48;94609.73;108677;1266;22584;-73
2024/02/10 04:27:31;;;;;;;5.20;3.40;;;;;;;7.18;99.32;94617.06;108652;1273;24232;-73
2024/02/10 04:30:06;;;;;;;9.00;5.50;;;;;;;7.19;99.36;94618.10;108684;1266;22524;-73
2024/02/10 04:32:46;;;;;;;8.90;6.50;;;;;;;7.05;98.29;94614.66;108724;1273;22540;-73
2024/02/10 04:35:19;;;;;;;13.40;9.20;;;;;;;6.91;98.57;94608.56;108669;1273;22520;-73
2024/02/10 04:37:53;;;;;;;8.80;5.20;;;;;;;6.85;98.83;94603.07;108666;1273;22531;-73
2024/02/10 04:40:25;;;;;;;5.20;3.60;;;;;;;6.82;99.01;94604.73;108652;1266;23006;-73
2024/02/10 04:42:56;;;;;;;3.70;3.10;;;;;;;6.83;99.47;94608.23;108628;1273;22547;-73
2024/02/10 04:45:30;;;;;;;5.20;3.70;;;;;;;6.84;99.75;94610.27;108636;1266;24304;-73
2024/02/10 04:48:03;;;;;;;5.20;3.30;;;;;;;6.84;99.77;94613.39;108612;1253;22575;-73
2024/02/10 04:50:34;;;;;;;8.60;5.50;;;;;;;6.84;99.94;94613.11;108669;1273;24225;-73
2024/02/10 04:53:08;;;;;;;5.40;4.00;;;;;;;6.90;100.00;94611.29;108658;1273;26437;-73
2024/02/10 04:55:41;;;;;;;6.10;4.50;;;;;;;6.97;100.00;94610.36;108667;1266;22939;-73
2024/02/10 04:58:12;;;;;;;9.30;6.30;;;;;;;7.03;100.00;94609.73;108669;1271;25373;-73
2024/02/10 05:00:43;;;;;;;8.90;6.10;;;;;;;7.08;100.00;94606.80;108658;1273;22615;-73
2024/02/10 05:03:14;;;;;;;8.80;7.00;;;;;;;7.12;100.00;94609.48;108712;1266;24387;-73
2024/02/10 05:05:45;;;;;;;6.70;5.00;;;;;;;7.15;100.00;94607.87;108832;1267;22726;-73
2024/02/10 05:08:16;;;;;;;5.50;3.90;;;;;;;7.16;100.00;94604.61;108816;1272;22561;-72
2024/02/10 05:10:47;;;;;;;4.40;3.40;;;;;;;7.18;100.00;94605.05;108839;1262;22528;-73
2024/02/10 05:13:18;;;;;;;4.60;3.30;;;;;;;7.19;100.00;94607.00;108743;1266;22630;-73
2024/02/10 05:15:49;;;;;;;6.60;4.70;;;;;;;7.13;100.00;94610.91;108807;1272;23859;-73
2024/02/10 05:18:20;;;;;;;7.10;5.10;;;;;;;7.02;99.93;94611.64;108781;1272;22523;-73
2024/02/10 05:20:52;;;;;;;9.80;7.20;;;;;;;6.92;99.98;94606.48;108773;1272;22542;-73
2024/02/10 05:23:24;;;;;;;11.00;7.60;;;;;;;6.88;100.00;94605.16;108749;1272;22532;-73
2024/02/10 05:25:55;;;;;;;10.60;7.00;;;;;;;6.86;100.00;94605.67;108766;1262;22618;-73
2024/02/10 05:28:26;;;;;;;9.70;6.60;;;;;;;6.82;100.00;94606.70;108800;1272;24224;-73
2024/02/10 05:30:59;;;;;;;9.30;5.70;;;;;;;6.84;100.00;94598.95;108864;1272;22577;-73
2024/02/10 05:33:30;;;;;;;9.70;6.20;;;;;;;6.90;100.00;94606.33;108789;1269;25274;-73
2024/02/10 05:36:01;;;;;;;10.10;7.40;;;;;;;6.91;100.00;94607.20;108785;1272;22544;-73
2024/02/10 05:38:32;;;;;;;11.60;7.30;;;;;;;6.86;100.00;94602.64;108834;1270;25388;-73
2024/02/10 05:41:04;;;;;;;10.00;6.10;;;;;;;6.89;100.00;94605.35;108813;1272;22522;-73
2024/02/10 05:43:35;;;;;;;7.70;5.00;;;;;;;6.94;100.00;94609.23;108863;1272;22531;-72
2024/02/10 05:46:09;;;;;;;6.90;4.40;;;;;;;6.98;100.00;94609.55;108808;1272;22628;-72
2024/02/10 05:48:40;;;;;;;8.10;5.20;;;;;;;6.97;100.00;94618.41;108828;1272;25367;-72
2024/02/10 05:51:12;;;;;;;6.90;4.70;;;;;;;7.01;100.00;94622.41;108782;1272;22555;-73
2024/02/10 05:53:45;;;;;;;8.10;5.20;;;;;;;7.05;100.00;94619.96;108803;1272;22536;-72
2024/02/10 05:56:16;;;;;;;7.10;5.10;;;;;;;7.09;100.00;94619.73;108929;1272;22563;-74
2024/02/10 05:58:47;;;;;;;8.40;5.20;;;;;;;7.09;100.00;94619.42;108761;1272;22528;-73
2024/02/10 06:01:19;;;;;;;6.20;3.80;;;;;;;7.10;100.00;94626.80;108718;1269;22520;-73
2024/02/10 06:03:52;;;;;;;6.20;4.00;;;;;;;7.03;100.00;94621.42;108825;1269;24409;-73
2024/02/10 06:06:23;;;;;;;7.00;4.50;;;;;;;6.94;100.00;94617.77;108793;1269;23050;-73
2024/02/10 06:08:55;;;;;;;6.20;4.10;;;;;;;6.93;100.00;94614.89;108809;1269;22516;-72
2024/02/10 06:11:26;;;;;;;5.80;3.60;;;;;;;6.96;100.00;94626.03;108816;1272;24232;-73
2024/02/10 06:13:57;;;;;;;7.60;5.60;;;;;;;6.92;100.00;94631.77;108860;1251;22525;-72
2024/02/10 06:16:30;;;;;;;18.50;15.90;;;;;;;6.83;100.00;94619.61;108832;1272;22518;-73
2024/02/10 06:19:01;;;;;;;11.30;8.20;;;;;;;6.81;100.00;94613.45;108819;1272;22523;-73
2024/02/10 06:21:35;;;;;;;46.90;36.10;;;;;;;6.80;100.00;94618.55;108750;1269;22636;-73
2024/02/10 06:24:07;;;;;;;25.20;19.70;;;;;;;6.84;100.00;94618.59;108855;1269;22532;-74
2024/02/10 06:26:38;;;;;;;12.60;10.00;;;;;;;6.90;100.00;94621.61;108831;1272;25274;-73
2024/02/10 06:29:10;;;;;;;13.00;7.80;;;;;;;6.95;100.00;94631.33;108883;1262;24040;-73
2024/02/10 06:31:42;;;;;;;11.50;6.80;;;;;;;6.92;100.00;94631.48;108833;1272;22528;-73
2024/02/10 06:34:13;;;;;;;12.20;7.00;;;;;;;6.93;100.00;94634.14;108773;1267;22521;-73
2024/02/10 06:36:47;;;;;;;8.40;5.90;;;;;;;6.93;100.00;94629.21;108795;1266;22525;-73
2024/02/10 06:39:19;;;;;;;6.50;4.30;;;;;;;6.97;100.00;94630.74;108832;1272;24208;-73
2024/02/10 06:41:51;;;;;;;10.90;6.40;;;;;;;7.02;100.00;94629.02;108796;1264;22539;-73
2024/02/10 06:44:22;;;;;;;11.40;6.10;;;;;;;7.05;100.00;94630.13;108762;1272;22535;-73
2024/02/10 06:46:53;;;;;;;7.70;5.90;;;;;;;7.09;100.00;94629.13;108705;1266;25689;-72
2024/02/10 06:49:24;;;;;;;9.70;6.30;;;;;;;7.06;100.00;94630.98;108791;1269;22524;-72
2024/02/10 06:51:56;;;;;;;6.80;5.50;;;;;;;7.01;100.00;94630.11;108875;1272;22527;-73
2024/02/10 06:54:27;;;;;;;7.90;5.30;;;;;;;7.02;100.00;94626.67;108858;1269;22575;-72
2024/02/10 06:57:02;;;;;;;7.00;5.00;;;;;;;7.12;100.00;94636.30;108859;1272;22696;-73
2024/02/10 06:59:33;;;;;;;11.00;6.90;;;;;;;7.24;100.00;94634.14;108909;1266;22593;-73
2024/02/10 07:02:05;;;;;;;7.40;5.30;;;;;;;7.33;100.00;94634.76;108852;1268;25416;-73
2024/02/10 07:04:37;;;;;;;6.60;5.00;;;;;;;7.37;100.00;94637.28;108901;1272;22529;-73
2024/02/10 07:07:10;;;;;;;7.60;5.20;;;;;;;7.39;100.00;94635.80;108946;1272;22525;-73
2024/02/10 07:09:41;;;;;;;6.00;5.10;;;;;;;7.40;100.00;94634.08;108909;1272;22521;-73
2024/02/10 07:12:12;;;;;;;7.20;4.80;;;;;;;7.44;100.00;94636.37;108904;1269;22600;-74
2024/02/10 07:14:45;;;;;;;7.10;5.30;;;;;;;7.52;100.00;94638.85;108870;1269;25233;-73
2024/02/10 07:17:16;;;;;;;8.10;4.80;;;;;;;7.55;100.00;94642.63;108904;1272;22543;-73
2024/02/10 07:19:52;;;;;;;10.00;6.50;;;;;;;7.50;100.00;94647.03;108901;1270;22539;-73
2024/02/10 07:22:25;;;;;;;11.30;7.30;;;;;;;7.49;100.00;94645.55;108886;1269;23052;-73
2024/02/10 07:24:56;;;;;;;10.50;6.70;;;;;;;7.53;100.00;94646.10;108875;1266;22524;-73
2024/02/10 07:27:27;;;;;;;11.10;5.90;;;;;;;7.59;100.00;94646.46;108851;1272;22532;-73
2024/02/10 07:29:59;;;;;;;7.00;5.40;;;;;;;7.65;100.00;94641.39;108871;1272;22522;-74
2024/02/10 07:32:31;;;;;;;8.20;4.90;;;;;;;7.72;100.00;94638.02;108846;1266;22525;-74
2024/02/10 07:35:04;;;;;;;5.80;4.40;;;;;;;7.74;100.00;94639.91;108666;1266;22542;-74
2024/02/10 07:37:35;;;;;;;7.50;5.00;;;;;;;7.70;100.00;94636.74;108916;1272;22557;-74
2024/02/10 07:40:08;;;;;;;7.30;5.30;;;;;;;7.71;100.00;94640.89;108909;1269;22946;-73
2024/02/10 07:42:39;;;;;;;7.70;6.20;;;;;;;7.66;100.00;94638.41;108896;1272;48344;-73
2024/02/10 07:45:11;;;;;;;9.40;5.80;;;;;;;7.70;100.00;94637.98;108875;1269;22547;-73
2024/02/10 07:47:44;;;;;;;9.10;6.50;;;;;;;7.72;100.00;94636.05;108877;1271;22516;-73
2024/02/10 07:50:16;;;;;;;8.50;6.50;;;;;;;7.69;100.00;94634.50;108879;1271;22537;-73
2024/02/10 07:52:47;;;;;;;10.90;6.90;;;;;;;7.78;100.00;94634.27;108824;1250;22534;-73
2024/02/10 07:55:18;;;;;;;9.70;6.80;;;;;;;7.89;100.00;94630.48;108854;1272;23286;-73
2024/02/10 07:57:51;;;;;;;9.10;6.40;;;;;;;8.01;100.00;94630.73;108824;1262;22518;-73
2024/02/10 08:00:23;;;;;;;8.60;6.40;;;;;;;8.24;100.00;94628.62;108931;1272;22540;-73
2024/02/10 08:02:56;;;;;;;8.70;6.10;;;;;;;8.32;100.00;94631.91;108869;1267;22484;-73
2024/02/10 08:05:28;;;;;;;8.10;6.10;;;;;;;8.23;100.00;94637.29;108885;1264;22554;-73
2024/02/10 08:08:03;;;;;;;9.00;5.30;;;;;;;8.12;100.00;94637.54;108910;1264;24265;-72
2024/02/10 08:10:34;;;;;;;6.80;4.50;;;;;;;8.14;100.00;94634.20;108947;1272;22655;-73
2024/02/10 08:13:08;;;;;;;8.80;5.50;;;;;;;8.21;100.00;94638.47;108943;1269;22571;-73
2024/02/10 08:15:40;;;;;;;8.10;6.40;;;;;;;8.20;100.00;94638.66;108732;1263;23927;-73
2024/02/10 08:18:11;;;;;;;7.00;5.90;;;;;;;8.41;100.00;94636.16;108925;1272;22521;-73
2024/02/10 08:20:43;;;;;;;7.80;5.80;;;;;;;8.69;100.00;94639.09;108873;1272;22633;-73
2024/02/10 08:23:16;;;;;;;6.70;5.30;;;;;;;8.81;100.00;94640.34;108871;1272;22521;-73
2024/02/10 08:25:49;;;;;;;8.10;4.80;;;;;;;8.91;100.00;94644.19;108928;1270;22536;-72
2024/02/10 08:28:20;;;;;;;6.20;4.70;;;;;;;8.98;100.00;94641.27;108948;1264;22630;-73
2024/02/10 08:30:53;;;;;;;6.70;4.80;;;;;;;9.03;100.00;94638.09;108965;1272;24321;-73
2024/02/10 08:33:26;;;;;;;7.00;5.60;;;;;;;9.12;100.00;94638.36;108892;1269;57867;-72
2024/02/10 08:35:58;;;;;;;8.50;6.10;;;;;;;9.22;100.00;94641.13;108933;1272;24218;-73
2024/02/10 08:38:29;;;;;;;10.90;7.50;;;;;;;9.29;100.00;94647.30;108905;1270;24745;-73
2024/02/10 08:41:00;;;;;;;9.00;7.00;;;;;;;9.34;100.00;94644.47;108888;1269;22673;-73
2024/02/10 08:43:32;;;;;;;9.60;7.00;;;;;;;9.47;100.00;94647.61;108840;1269;22520;-73
2024/02/10 08:46:03;;;;;;;10.00;6.60;;;;;;;10.12;100.00;94644.27;108871;1272;22566;-73
2024/02/10 08:48:34;;;;;;;8.20;6.90;;;;;;;11.01;100.00;94640.10;108765;1269;22545;-73
2024/02/10 08:51:11;;;;;;;6.60;4.70;;;;;;;11.93;100.00;94644.80;108829;1266;22616;-73
2024/02/10 08:53:43;;;;;;;6.50;4.90;;;;;;;12.40;100.00;94637.84;108860;1266;22528;-72
2024/02/10 08:56:15;;;;;;;5.00;3.60;;;;;;;12.64;100.00;94641.09;108775;1272;22532;-73
2024/02/10 08:58:48;;;;;;;4.20;3.40;;;;;;;13.36;100.00;94640.59;108820;1269;22535;-73
2024/02/10 09:01:20;;;;;;;4.00;3.20;;;;;;;14.01;100.00;94641.64;108831;1272;22989;-74
2024/02/10 09:03:52;;;;;;;3.60;2.70;;;;;;;14.37;99.94;94639.38;108886;1267;22633;-73
2024/02/10 09:06:24;;;;;;;4.60;2.50;;;;;;;14.56;98.68;94639.23;108833;1272;22706;-73
2024/02/10 09:08:55;;;;;;;3.70;2.50;;;;;;;14.45;96.06;94636.02;108882;1263;22528;-73
2024/02/10 09:11:26;;;;;;;4.60;2.80;;;;;;;13.73;94.34;94632.27;108469;1266;22544;-73
2024/02/10 09:13:57;;;;;;;3.90;2.90;;;;;;;13.17;93.39;94632.67;108818;1263;22539;-72
2024/02/10 09:16:28;;;;;;;4.40;2.60;;;;;;;12.82;93.94;94641.50;108834;1272;22534;-72
2024/02/10 09:18:59;;;;;;;3.30;2.80;;;;;;;12.75;93.81;94635.21;108797;1272;25239;-72
2024/02/10 09:21:31;;;;;;;4.40;2.90;;;;;;;12.74;93.70;94632.70;108772;1269;22670;-72
2024/02/10 09:24:03;;;;;;;3.20;2.50;;;;;;;12.78;93.95;94638.27;108795;1272;22534;-72
2024/02/10 09:26:34;;;;;;;5.80;2.90;;;;;;;12.82;93.07;94640.27;108818;1272;25255;-72
2024/02/10 09:29:05;;;;;;;4.40;2.50;;;;;;;12.52;91.66;94637.66;108827;1251;22532;-72
2024/02/10 09:31:36;;;;;;;3.20;2.30;;;;;;;12.48;92.37;94627.57;108730;1269;23385;-72
2024/02/10 09:34:11;;;;;;;2.80;1.70;;;;;;;12.54;91.89;94624.02;108951;1268;25344;-72
2024/02/10 09:36:43;;;;;;;2.80;1.60;;;;;;;12.27;90.47;94624.95;108968;1265;22582;-73
2024/02/10 09:39:15;;;;;;;4.10;2.40;;;;;;;12.08;90.14;94627.60;108993;1269;22548;-73
2024/02/10 09:41:51;;;;;;;3.40;2.00;;;;;;;12.08;90.57;94631.24;108938;1269;23035;-72
2024/02/10 09:44:22;;;;;;;2.80;1.60;;;;;;;12.08;89.97;94627.73;109075;1269;22561;-73
2024/02/10 09:46:56;;;;;;;3.20;1.90;;;;;;;12.11;89.83;94628.59;108964;1264;24356;-72
2024/02/10 09:49:32;;;;;;;2.80;1.90;;;;;;;12.29;89.64;94628.27;108931;1269;22554;-73
2024/02/10 09:52:03;;;;;;;3.40;2.50;;;;;;;12.31;88.98;94626.91;108917;1270;22532;-72
2024/02/10 09:54:35;;;;;;;2.40;2.00;;;;;;;12.35;88.67;94637.54;108879;1271;22525;-73
2024/02/10 09:57:12;;;;;;;3.90;2.50;;;;;;;12.35;86.29;94635.82;108924;1264;23409;-72
2024/02/10 09:59:44;;;;;;;3.20;2.20;;;;;;;12.29;86.45;94644.06;108906;1268;22546;-73
2024/02/10 10:02:15;;;;;;;4.20;1.40;;;;;;;12.46;86.50;94645.20;108806;1267;23082;-73
2024/02/10 10:04:49;;;;;;;3.90;2.00;;;;;;;12.46;84.87;94649.02;108882;1272;25288;-73
2024/02/10 10:07:21;;;;;;;2.90;2.00;;;;;;;12.54;85.14;94650.52;108900;1269;22523;-73
2024/02/10 10:09:52;;;;;;;5.30;2.30;;;;;;;12.56;83.30;94648.45;108922;1272;22545;-73
2024/02/10 10:12:25;;;;;;;3.50;2.20;;;;;;;12.47;81.25;94655.13;108853;1268;25277;-72
2024/02/10 10:14:57;;;;;;;2.60;1.50;;;;;;;12.53;80.92;94649.58;108868;1272;22527;-73
2024/02/10 10:17:38;;;;;;;2.50;1.50;;;;;;;12.52;78.14;94646.14;108892;1269;22606;-72
2024/02/10 10:20:10;;;;;;;2.20;1.60;;;;;;;12.37;75.11;94648.70;108910;1253;26512;-74
2024/02/10 10:22:42;;;;;;;3.00;1.90;;;;;;;12.11;76.10;94657.52;108835;1264;41392;-73
2024/02/10 10:25:22;;;;;;;2.10;1.50;;;;;;;11.98;76.72;94658.10;108917;1272;22533;-73
2024/02/10 10:27:53;;;;;;;2.00;1.10;;;;;;;11.79;74.46;94648.76;108864;1272;22643;-73
2024/02/10 10:30:29;;;;;;;4.00;1.30;;;;;;;11.55;73.39;94658.07;108983;1264;22505;-74
2024/02/10 10:33:06;;;;;;;1.40;0.90;;;;;;;11.50;75.29;94659.26;108901;1272;24713;-74
2024/02/10 10:35:42;;;;;;;2.40;1.50;;;;;;;11.54;75.79;94656.27;108903;1272;22520;-73
2024/02/10 10:38:16;;;;;;;3.30;1.40;;;;;;;11.56;76.56;94654.84;108853;1272;22534;-73
2024/02/10 10:40:49;;;;;;;3.00;1.50;;;;;;;11.61;76.61;94651.66;108801;1272;23193;-73
2024/02/10 10:43:25;;;;;;;2.20;0.70;;;;;;;11.62;76.81;94645.84;108780;1272;22527;-73
2024/02/10 10:45:58;;;;;;;1.40;1.00;;;;;;;11.60;75.45;94633.57;108779;1272;22536;-73
2024/02/10 10:48:33;;;;;;;4.70;1.50;;;;;;;11.56;75.07;94634.69;108844;1272;23362;-73
2024/02/10 10:51:10;;;;;;;3.00;1.10;;;;;;;11.71;75.87;94623.22;108871;1272;22590;-73
2024/02/10 10:53:46;;;;;;;3.00;1.60;;;;;;;11.91;74.82;94613.60;108657;1267;22541;-73
2024/02/10 10:56:22;;;;;;;5.60;1.20;;;;;;;12.11;75.06;94609.84;108659;1266;22532;-74
2024/02/10 10:58:59;;;;;;;1.50;0.90;;;;;;;12.17;72.83;94606.23;108660;1272;22618;-74
2024/02/10 11:01:37;;;;;;;1.60;0.70;;;;;;;12.18;71.89;94603.45;108483;1264;22523;-74
2024/02/10 11:04:13;;;;;;;3.30;1.20;;;;;;;12.18;70.55;94603.07;108001;1266;22572;-73
2024/02/10 11:06:47;;;;;;;1.90;0.80;;;;;;;12.22;70.81;94614.27;108782;1260;25296;-74
2024/02/10 11:09:20;;;;;;;1.80;1.10;;;;;;;12.24;69.90;94615.60;107776;1266;22546;-74
2024/02/10 11:11:53;;;;;;;2.40;1.30;;;;;;;12.38;70.97;94609.48;108039;1269;25386;-73
2024/02/10 11:14:26;;;;;;;2.80;1.20;;;;;;;12.40;69.64;94612.48;108713;1264;22515;-73
2024/02/10 11:16:58;;;;;;;2.20;0.70;;;;;;;12.43;69.05;94615.23;108633;1272;195816;-72
2024/02/10 11:19:31;;;;;;;4.30;1.40;;;;;;;12.54;68.58;94605.72;108757;1269;22518;-73
2024/02/10 11:22:11;;;;;;;1.20;0.80;;;;;;;12.58;67.96;94609.85;108595;1264;27981;-73
2024/02/10 11:24:48;;;;;;;1.90;0.90;;;;;;;12.54;66.48;94608.25;108649;1269;22533;-73
2024/02/10 11:27:20;;;;;;;1.90;1.10;;;;;;;12.50;65.81;94600.74;108603;1272;22563;-73
2024/02/10 11:29:58;;;;;;;1.20;0.70;;;;;;;12.44;65.91;94608.35;108763;1272;22548;-73
2024/02/10 11:32:31;;;;;;;2.00;0.60;;;;;;;12.48;66.75;94608.46;108857;1267;23840;-73
2024/02/10 11:35:04;;;;;;;2.10;1.10;;;;;;;12.50;65.70;94602.80;108777;1271;23013;-73
2024/02/10 11:37:37;;;;;;;2.20;1.20;;;;;;;12.46;65.42;94605.22;108834;1270;22525;-73
2024/02/10 11:40:19;;;;;;;2.70;1.50;;;;;;;12.46;65.03;94606.44;108833;1265;22511;-73
2024/02/10 11:42:50;;;;;;;2.70;1.10;;;;;;;12.38;65.12;94614.34;108859;1272;22602;-73
2024/02/10 11:45:26;;;;;;;4.20;1.40;;;;;;;12.43;65.76;94607.95;108870;1272;22531;-74
2024/02/10 11:47:58;;;;;;;2.60;1.60;;;;;;;12.46;65.79;94616.60;108933;1272;24271;-73
2024/02/10 11:50:29;;;;;;;0.90;0.70;;;;;;;12.57;66.57;94609.45;108867;1272;22514;-73